Time;durP1;ratioP1;P1;durP2;ratioP2;P2;SDS_P1;SDS_P2;PMS_P1;PMS_P2;Temp;Humidity;BMP_temperature;BMP_pressure;BME280_temperature;BME280_humidity;BME280_pressure;Samples;Min_cycle;Max_cycle;Signal;HPM_P1;HPM_P2
2024/02/27 00:01:40;;;;;;;41.40;18.25;;;5.30;99.90;;;;;;5042893;28;20051;-62
2024/02/27 00:04:06;;;;;;;40.90;17.05;;;5.30;99.90;;;;;;5046026;28;20021;-62
2024/02/27 00:06:32;;;;;;;37.80;16.85;;;5.30;99.90;;;;;;5045950;28;20033;-63
2024/02/27 00:08:57;;;;;;;41.97;20.00;;;5.30;99.90;;;;;;5053782;28;20498;-62
2024/02/27 00:11:23;;;;;;;41.75;18.35;;;5.30;99.90;;;;;;5054048;28;20024;-63
2024/02/27 00:13:49;;;;;;;40.70;21.80;;;5.30;99.90;;;;;;5049345;28;20128;-63
2024/02/27 00:16:18;;;;;;;43.22;21.80;;;5.20;99.90;;;;;;5047159;28;20066;-62
2024/02/27 00:18:45;;;;;;;43.25;18.35;;;5.20;99.90;;;;;;5052828;28;20028;-62
2024/02/27 00:21:10;;;;;;;42.05;20.75;;;5.10;99.90;;;;;;5039619;28;20036;-63
2024/02/27 00:23:36;;;;;;;40.35;18.20;;;5.20;99.90;;;;;;5035498;28;20048;-63
2024/02/27 00:26:03;;;;;;;39.05;18.05;;;5.20;99.90;;;;;;5040656;28;20126;-63
2024/02/27 00:28:29;;;;;;;42.42;16.70;;;5.20;99.90;;;;;;5038061;28;20484;-63
2024/02/27 00:30:55;;;;;;;40.88;19.30;;;5.10;99.90;;;;;;5039723;28;20022;-63
2024/02/27 00:33:20;;;;;;;40.92;17.73;;;5.20;99.90;;;;;;5037075;28;20071;-63
2024/02/27 00:35:46;;;;;;;42.72;19.40;;;5.10;99.90;;;;;;5038106;28;20392;-63
2024/02/27 00:38:12;;;;;;;43.90;19.55;;;5.00;99.90;;;;;;5039808;28;20546;-63
2024/02/27 00:40:37;;;;;;;39.13;17.23;;;5.00;99.90;;;;;;5036701;28;20021;-63
2024/02/27 00:43:03;;;;;;;49.78;21.63;;;4.90;99.90;;;;;;5041119;28;20024;-63
2024/02/27 00:45:29;;;;;;;42.72;20.20;;;4.90;99.90;;;;;;5037431;28;20097;-63
2024/02/27 00:47:56;;;;;;;40.75;18.23;;;4.90;99.90;;;;;;5039143;28;20025;-63
2024/02/27 00:50:22;;;;;;;43.35;17.08;;;4.90;99.90;;;;;;5038407;28;20383;-63
2024/02/27 00:52:48;;;;;;;40.13;21.65;;;4.90;99.90;;;;;;5036596;28;20031;-63
2024/02/27 00:55:16;;;;;;;44.28;18.33;;;4.90;99.90;;;;;;5039410;28;20032;-62
2024/02/27 00:57:42;;;;;;;40.72;16.98;;;4.90;99.90;;;;;;5039747;28;20037;-63
2024/02/27 01:00:11;;;;;;;38.80;18.13;;;4.90;99.90;;;;;;5039711;28;20024;-63
2024/02/27 01:02:38;;;;;;;44.13;21.57;;;4.90;99.90;;;;;;5036154;28;20032;-63
2024/02/27 01:05:05;;;;;;;38.70;17.67;;;4.90;99.90;;;;;;5040060;28;20607;-62
2024/02/27 01:07:30;;;;;;;44.05;21.42;;;4.80;99.90;;;;;;5037086;28;20384;-62
2024/02/27 01:09:56;;;;;;;40.42;17.90;;;4.80;99.90;;;;;;5039605;28;20029;-63
2024/02/27 01:12:23;;;;;;;41.72;18.80;;;4.80;99.90;;;;;;5037434;28;20041;-62
2024/02/27 01:14:49;;;;;;;42.80;18.30;;;4.80;99.90;;;;;;5036233;28;20079;-63
2024/02/27 01:17:14;;;;;;;43.25;17.70;;;4.80;99.90;;;;;;5038697;28;20060;-63
2024/02/27 01:19:40;;;;;;;40.78;17.73;;;4.90;99.90;;;;;;5040286;28;20025;-62
2024/02/27 01:22:06;;;;;;;38.00;16.65;;;4.90;99.90;;;;;;5043733;28;20432;-62
2024/02/27 01:24:33;;;;;;;35.45;15.15;;;5.00;99.90;;;;;;5037624;28;20037;-62
2024/02/27 01:26:59;;;;;;;40.40;16.70;;;4.90;99.90;;;;;;5040880;28;20269;-63
2024/02/27 01:29:25;;;;;;;40.55;17.98;;;4.90;99.90;;;;;;5040213;28;20483;-62
2024/02/27 01:31:54;;;;;;;40.15;17.60;;;5.00;99.90;;;;;;5037149;28;20030;-62
2024/02/27 01:34:20;;;;;;;39.15;16.85;;;5.00;99.90;;;;;;5039899;28;20079;-63
2024/02/27 01:36:46;;;;;;;40.40;14.50;;;5.00;99.90;;;;;;5038599;28;20435;-63
2024/02/27 01:39:13;;;;;;;39.17;17.05;;;4.90;99.90;;;;;;5042705;28;20037;-62
2024/02/27 01:41:47;;;;;;;38.97;17.73;;;4.90;99.90;;;;;;5042107;28;20748;-63
2024/02/27 01:44:13;;;;;;;41.30;18.70;;;4.90;99.90;;;;;;5043112;28;20025;-62
2024/02/27 01:46:38;;;;;;;40.20;16.38;;;4.80;99.90;;;;;;5041600;28;20075;-62
2024/02/27 01:49:04;;;;;;;42.08;17.58;;;4.80;99.90;;;;;;5043650;28;20229;-63
2024/02/27 01:51:31;;;;;;;39.90;18.20;;;4.80;99.90;;;;;;5042339;28;20021;-62
2024/02/27 01:53:58;;;;;;;41.10;17.58;;;4.80;99.90;;;;;;5041772;28;20048;-62
2024/02/27 01:56:25;;;;;;;42.35;17.42;;;4.70;99.90;;;;;;5039586;28;20388;-62
2024/02/27 01:58:52;;;;;;;40.60;17.17;;;4.80;99.90;;;;;;5043410;28;20021;-63
2024/02/27 02:01:19;;;;;;;45.17;17.85;;;4.70;99.90;;;;;;5042715;28;20040;-62
2024/02/27 02:03:45;;;;;;;40.15;18.30;;;4.60;99.90;;;;;;5039286;28;20029;-62
2024/02/27 02:06:11;;;;;;;41.28;18.77;;;4.60;99.90;;;;;;5042216;28;20443;-62
2024/02/27 02:08:38;;;;;;;43.50;17.42;;;4.70;99.90;;;;;;5041022;28;20495;-62
2024/02/27 02:11:07;;;;;;;46.08;21.02;;;4.70;99.90;;;;;;5043152;28;20445;-62
2024/02/27 02:13:34;;;;;;;41.63;17.00;;;4.70;99.90;;;;;;5041487;28;20049;-62
2024/02/27 02:16:00;;;;;;;37.70;18.02;;;4.60;99.90;;;;;;5043659;28;20072;-62
2024/02/27 02:18:26;;;;;;;41.42;17.13;;;4.60;99.90;;;;;;5038173;28;20025;-63
2024/02/27 02:20:51;;;;;;;41.80;17.88;;;6.10;99.90;;;;;;5043760;28;20041;-62
2024/02/27 02:23:17;;;;;;;41.78;16.08;;;4.50;99.90;;;;;;5038770;28;20106;-63
2024/02/27 02:25:45;;;;;;;42.58;18.17;;;4.60;99.90;;;;;;5042924;28;20611;-63
2024/02/27 02:28:11;;;;;;;30.77;13.98;;;4.60;99.90;;;;;;5041173;28;20288;-63
2024/02/27 02:30:37;;;;;;;41.05;18.60;;;4.60;99.90;;;;;;5042061;28;20040;-65
2024/02/27 02:33:03;;;;;;;41.88;20.02;;;4.60;99.90;;;;;;5039647;28;20032;-63
2024/02/27 02:35:28;;;;;;;43.47;20.85;;;4.50;99.90;;;;;;5040831;28;20132;-63
2024/02/27 02:37:54;;;;;;;41.67;17.92;;;4.50;99.90;;;;;;5043275;28;20031;-63
2024/02/27 02:40:21;;;;;;;37.60;16.67;;;4.50;99.90;;;;;;5038774;28;20539;-63
2024/02/27 02:42:47;;;;;;;45.95;19.85;;;4.60;99.90;;;;;;5042665;28;20045;-63
2024/02/27 02:45:13;;;;;;;41.15;18.38;;;4.50;99.90;;;;;;5040897;28;20053;-63
2024/02/27 02:47:39;;;;;;;45.90;19.25;;;4.50;99.90;;;;;;5041908;28;20072;-63
2024/02/27 02:50:07;;;;;;;47.25;21.02;;;4.50;99.90;;;;;;5041126;28;20112;-63
2024/02/27 02:52:32;;;;;;;46.88;19.58;;;4.50;99.90;;;;;;5040023;28;20032;-63
2024/02/27 02:55:02;;;;;;;44.50;19.77;;;4.40;99.90;;;;;;5040348;28;20036;-63
2024/02/27 02:57:30;;;;;;;44.33;19.80;;;4.40;99.90;;;;;;5040933;28;20041;-63
2024/02/27 02:59:56;;;;;;;42.30;18.80;;;4.40;99.90;;;;;;5042360;28;20032;-64
2024/02/27 03:02:22;;;;;;;42.85;17.85;;;4.50;99.90;;;;;;5037786;28;20431;-63
2024/02/27 03:04:47;;;;;;;39.38;16.30;;;4.40;99.90;;;;;;5042872;28;20071;-63
2024/02/27 03:07:13;;;;;;;46.55;18.17;;;4.40;99.90;;;;;;5040656;28;20029;-63
2024/02/27 03:09:38;;;;;;;46.15;18.85;;;4.40;99.90;;;;;;5041235;28;20029;-63
2024/02/27 03:12:04;;;;;;;40.70;17.13;;;4.40;99.90;;;;;;5041224;28;20071;-63
2024/02/27 03:14:30;;;;;;;48.30;20.38;;;4.40;99.90;;;;;;5040379;28;20073;-64
2024/02/27 03:16:55;;;;;;;41.60;16.20;;;4.50;99.90;;;;;;5041154;28;20044;-63
2024/02/27 03:19:21;;;;;;;42.17;19.00;;;4.50;99.90;;;;;;5039655;28;20034;-63
2024/02/27 03:21:47;;;;;;;41.83;18.25;;;4.50;99.90;;;;;;5039160;28;20497;-63
2024/02/27 03:24:13;;;;;;;39.15;16.42;;;4.40;99.90;;;;;;5041859;28;20052;-64
2024/02/27 03:26:38;;;;;;;45.10;18.17;;;4.40;99.90;;;;;;5043649;28;20096;-63
2024/02/27 03:29:04;;;;;;;48.22;22.15;;;4.40;99.90;;;;;;5040976;28;20079;-63
2024/02/27 03:31:29;;;;;;;46.63;19.67;;;4.30;99.90;;;;;;5041531;28;20096;-63
2024/02/27 03:33:55;;;;;;;45.13;18.90;;;4.20;99.90;;;;;;5041619;28;20020;-63
2024/02/27 03:36:21;;;;;;;46.25;19.17;;;4.30;99.90;;;;;;5039324;28;20033;-63
2024/02/27 03:38:46;;;;;;;45.33;19.80;;;4.20;99.90;;;;;;5041893;28;20024;-63
2024/02/27 03:41:12;;;;;;;40.97;17.92;;;4.30;99.90;;;;;;5039355;28;20492;-63
2024/02/27 03:43:39;;;;;;;45.53;18.92;;;4.30;99.90;;;;;;5041774;28;20036;-63
2024/02/27 03:46:05;;;;;;;45.15;17.73;;;4.30;99.90;;;;;;5040432;28;20034;-63
2024/02/27 03:48:30;;;;;;;45.95;17.98;;;4.30;99.90;;;;;;5040783;28;20381;-63
2024/02/27 03:50:56;;;;;;;44.60;19.00;;;4.20;99.90;;;;;;5036933;28;20052;-63
2024/02/27 03:53:21;;;;;;;50.15;21.73;;;4.20;99.90;;;;;;5035940;28;20045;-63
2024/02/27 03:55:47;;;;;;;45.13;19.27;;;4.10;99.90;;;;;;5041327;28;20530;-63
2024/02/27 03:58:12;;;;;;;49.22;19.65;;;4.10;99.90;;;;;;5037588;28;20025;-63
2024/02/27 04:00:38;;;;;;;45.30;18.70;;;4.10;99.90;;;;;;5041619;28;20090;-63
2024/02/27 04:03:04;;;;;;;48.28;19.58;;;4.00;99.90;;;;;;5036799;28;20399;-63
2024/02/27 04:05:29;;;;;;;50.75;20.90;;;4.00;99.90;;;;;;5038937;28;20021;-63
2024/02/27 04:07:55;;;;;;;50.90;20.98;;;3.90;99.90;;;;;;5040955;28;20384;-63
2024/02/27 04:10:21;;;;;;;43.90;19.90;;;3.90;99.90;;;;;;5039696;28;20045;-63
2024/02/27 04:12:46;;;;;;;50.58;20.55;;;3.90;99.90;;;;;;5041407;28;20033;-63
2024/02/27 04:15:12;;;;;;;48.83;20.10;;;3.90;99.90;;;;;;5039019;28;20104;-62
2024/02/27 04:17:38;;;;;;;44.03;18.48;;;3.90;99.90;;;;;;5041237;28;20031;-62
2024/02/27 04:20:05;;;;;;;52.10;22.63;;;3.90;99.90;;;;;;5038999;28;20229;-62
2024/02/27 04:22:31;;;;;;;50.58;20.90;;;3.90;99.90;;;;;;5038757;28;20120;-62
2024/02/27 04:24:57;;;;;;;49.30;20.88;;;3.90;99.90;;;;;;5049432;28;20112;-63
2024/02/27 04:27:22;;;;;;;44.90;17.63;;;4.00;99.90;;;;;;5051698;28;20058;-62
2024/02/27 04:29:48;;;;;;;45.50;19.80;;;4.00;99.90;;;;;;5048979;28;20025;-62
2024/02/27 04:32:14;;;;;;;44.33;17.80;;;4.00;99.90;;;;;;5045021;28;20101;-62
2024/02/27 04:34:42;;;;;;;46.75;20.55;;;4.00;99.90;;;;;;5045008;28;20115;-62
2024/02/27 04:37:08;;;;;;;45.03;18.98;;;4.00;99.90;;;;;;5051734;28;20033;-62
2024/02/27 04:39:33;;;;;;;45.80;18.60;;;4.00;99.90;;;;;;5043075;28;20309;-62
2024/02/27 04:41:59;;;;;;;50.47;22.00;;;4.00;99.90;;;;;;5048314;28;20096;-62
2024/02/27 04:44:24;;;;;;;53.42;20.10;;;4.00;99.90;;;;;;5048228;28;20025;-62
2024/02/27 04:46:50;;;;;;;47.88;19.80;;;3.90;99.90;;;;;;5040919;28;20378;-62
2024/02/27 04:49:16;;;;;;;43.35;16.15;;;4.00;99.90;;;;;;5039869;28;20029;-62
2024/02/27 04:51:42;;;;;;;41.67;18.25;;;4.00;99.90;;;;;;5033150;28;20246;-62
2024/02/27 04:54:08;;;;;;;43.85;18.67;;;4.00;99.90;;;;;;5039733;28;20532;-63
2024/02/27 04:56:34;;;;;;;49.03;20.77;;;4.00;99.90;;;;;;5040450;28;20370;-63
2024/02/27 04:59:02;;;;;;;45.40;18.55;;;4.00;99.90;;;;;;5041663;28;20032;-63
2024/02/27 05:01:29;;;;;;;45.45;18.88;;;4.00;99.90;;;;;;5040200;28;20428;-62
2024/02/27 05:03:55;;;;;;;50.65;20.58;;;4.00;99.90;;;;;;5047611;28;20067;-63
2024/02/27 05:06:20;;;;;;;44.40;18.20;;;4.00;99.90;;;;;;5039978;28;20013;-63
2024/02/27 05:08:46;;;;;;;46.80;20.58;;;4.00;99.90;;;;;;5039884;28;20473;-61
2024/02/27 05:11:11;;;;;;;43.65;17.60;;;4.00;99.90;;;;;;5044341;28;20373;-63
2024/02/27 05:13:38;;;;;;;43.75;17.77;;;4.00;99.90;;;;;;5044248;28;20068;-62
2024/02/27 05:16:06;;;;;;;44.33;19.00;;;4.10;99.90;;;;;;5045072;28;20112;-61
2024/02/27 05:18:32;;;;;;;41.08;16.95;;;4.20;99.90;;;;;;5042815;28;20035;-61
2024/02/27 05:20:57;;;;;;;41.75;18.02;;;4.20;99.90;;;;;;5043325;28;20028;-62
2024/02/27 05:23:23;;;;;;;44.85;17.85;;;4.20;99.90;;;;;;5044484;28;20509;-61
2024/02/27 05:25:49;;;;;;;43.92;19.40;;;4.20;99.90;;;;;;5041923;28;20099;-61
2024/02/27 05:28:14;;;;;;;47.78;19.15;;;4.20;99.90;;;;;;5044182;28;20012;-61
2024/02/27 05:30:40;;;;;;;41.45;18.58;;;4.20;99.90;;;;;;5062805;28;20029;-62
2024/02/27 05:33:05;;;;;;;38.63;19.02;;;4.20;99.90;;;;;;5041451;28;20539;-63
2024/02/27 05:35:31;;;;;;;43.30;17.95;;;4.20;99.90;;;;;;5041659;28;20057;-63
2024/02/27 05:37:57;;;;;;;42.45;17.42;;;4.20;99.90;;;;;;5040624;28;20539;-62
2024/02/27 05:40:23;;;;;;;43.63;18.75;;;4.20;99.90;;;;;;5040879;28;20021;-63
2024/02/27 05:42:48;;;;;;;39.92;17.05;;;4.20;99.90;;;;;;5033715;28;20026;-62
2024/02/27 05:45:14;;;;;;;44.85;17.70;;;4.20;99.90;;;;;;5036457;28;20026;-62
2024/02/27 05:47:40;;;;;;;43.42;17.90;;;4.20;99.90;;;;;;5039984;28;20739;-63
2024/02/27 05:50:06;;;;;;;41.53;19.42;;;4.10;99.90;;;;;;5038314;28;20108;-63
2024/02/27 05:52:32;;;;;;;44.45;19.10;;;4.10;99.90;;;;;;5037026;28;20489;-62
2024/02/27 05:54:57;;;;;;;43.03;17.25;;;4.00;99.90;;;;;;5037801;28;20054;-63
2024/02/27 05:57:23;;;;;;;42.15;17.80;;;4.00;99.90;;;;;;5038203;28;20043;-63
2024/02/27 05:59:48;;;;;;;40.40;17.83;;;4.00;99.90;;;;;;5041672;28;20071;-63
2024/02/27 06:02:15;;;;;;;44.03;19.27;;;4.10;99.90;;;;;;5039122;28;20021;-63
2024/02/27 06:04:40;;;;;;;41.03;18.30;;;4.10;99.90;;;;;;5037384;28;20032;-63
2024/02/27 06:07:08;;;;;;;49.25;18.90;;;4.00;99.90;;;;;;5041646;28;20501;-63
2024/02/27 06:09:35;;;;;;;46.10;19.25;;;4.00;99.90;;;;;;5039616;28;20484;-63
2024/02/27 06:12:00;;;;;;;48.92;19.30;;;3.90;99.90;;;;;;5042661;28;20057;-62
2024/02/27 06:14:26;;;;;;;43.58;18.08;;;3.90;99.90;;;;;;5036385;28;20073;-63
2024/02/27 06:16:51;;;;;;;43.90;17.33;;;3.90;99.90;;;;;;5035235;28;20037;-62
2024/02/27 06:19:19;;;;;;;42.58;19.33;;;4.00;99.90;;;;;;5045978;28;20036;-63
2024/02/27 06:24:29;;;;;;;44.58;19.30;;;4.00;99.90;;;;;;5041559;28;20049;-63
2024/02/27 06:26:55;;;;;;;42.60;18.05;;;3.90;99.90;;;;;;5040996;28;20034;-63
2024/02/27 06:29:21;;;;;;;42.90;17.33;;;3.90;99.90;;;;;;5045373;28;20406;-63
2024/02/27 06:31:46;;;;;;;40.38;17.42;;;3.90;99.90;;;;;;5041711;28;20043;-66
2024/02/27 06:34:12;;;;;;;43.35;17.90;;;3.90;99.90;;;;;;5046135;28;20074;-62
2024/02/27 06:36:37;;;;;;;41.92;17.67;;;4.00;99.90;;;;;;5038998;28;20116;-63
2024/02/27 06:39:03;;;;;;;41.28;16.80;;;4.00;99.90;;;;;;5042598;28;20071;-63
2024/02/27 06:41:29;;;;;;;45.17;20.27;;;4.10;99.90;;;;;;5043969;28;20392;-63
2024/02/27 06:43:54;;;;;;;39.00;16.60;;;4.00;99.90;;;;;;5042497;28;20175;-63
2024/02/27 06:46:20;;;;;;;42.15;15.95;;;4.00;99.90;;;;;;5044273;28;20021;-62
2024/02/27 06:48:46;;;;;;;44.70;17.80;;;4.10;99.90;;;;;;5043509;28;20048;-63
2024/02/27 06:51:11;;;;;;;41.60;18.25;;;4.20;99.90;;;;;;5036635;28;20112;-61
2024/02/27 06:53:37;;;;;;;44.20;18.95;;;4.20;99.90;;;;;;5039807;28;20051;-64
2024/02/27 06:56:03;;;;;;;42.33;16.95;;;4.20;99.90;;;;;;5037410;28;20052;-63
2024/02/27 06:58:30;;;;;;;43.28;19.92;;;4.10;99.90;;;;;;5044071;28;20116;-63
2024/02/27 07:00:55;;;;;;;43.78;18.42;;;4.10;99.90;;;;;;5041794;28;20485;-63
2024/02/27 07:03:21;;;;;;;44.92;20.08;;;4.00;99.90;;;;;;5046741;28;20028;-63
2024/02/27 07:05:48;;;;;;;42.13;19.00;;;3.90;99.90;;;;;;5045384;28;20033;-63
2024/02/27 07:08:13;;;;;;;42.53;18.13;;;4.00;99.90;;;;;;5047957;28;20021;-65
2024/02/27 07:10:39;;;;;;;43.10;16.50;;;3.90;99.90;;;;;;5041150;28;20643;-64
2024/02/27 07:13:06;;;;;;;42.15;19.52;;;4.00;99.90;;;;;;5040673;28;20562;-62
2024/02/27 07:15:36;;;;;;;38.50;16.00;;;4.10;99.90;;;;;;5044048;28;20113;-65
2024/02/27 07:18:02;;;;;;;42.50;18.80;;;4.10;99.90;;;;;;5040997;28;20441;-62
2024/02/27 07:20:29;;;;;;;40.78;15.88;;;4.20;99.90;;;;;;5043160;28;20033;-62
2024/02/27 07:22:55;;;;;;;40.58;17.23;;;4.10;99.90;;;;;;5042933;28;20392;-61
2024/02/27 07:25:20;;;;;;;44.53;19.02;;;4.20;99.90;;;;;;5040195;28;20026;-63
2024/02/27 07:27:48;;;;;;;36.72;16.25;;;4.20;99.90;;;;;;5041052;28;20032;-62
2024/02/27 07:30:14;;;;;;;40.53;17.02;;;4.10;99.90;;;;;;5042274;28;20108;-62
2024/02/27 07:32:41;;;;;;;38.95;16.05;;;4.20;99.90;;;;;;5043660;28;20752;-62
2024/02/27 07:35:10;;;;;;;41.35;16.70;;;4.30;99.90;;;;;;5040535;28;20697;-62
2024/02/27 07:37:36;;;;;;;44.97;19.08;;;4.30;99.90;;;;;;5040982;28;20021;-62
2024/02/27 07:40:02;;;;;;;41.30;17.95;;;4.30;99.90;;;;;;5047695;28;20051;-64
2024/02/27 07:42:28;;;;;;;40.03;17.00;;;4.30;99.90;;;;;;5044163;28;20040;-62
2024/02/27 07:44:53;;;;;;;43.70;18.88;;;4.20;99.90;;;;;;5044850;28;20391;-64
2024/02/27 07:47:19;;;;;;;44.38;18.40;;;4.20;99.90;;;;;;5047484;28;20400;-63
2024/02/27 07:49:46;;;;;;;44.25;17.40;;;4.10;99.90;;;;;;5042197;28;20116;-62
2024/02/27 07:52:13;;;;;;;43.85;18.85;;;4.20;99.90;;;;;;5040823;28;20101;-62
2024/02/27 07:54:39;;;;;;;44.08;17.55;;;4.30;99.90;;;;;;5039858;28;20041;-63
2024/02/27 07:57:05;;;;;;;40.53;17.13;;;4.30;99.90;;;;;;5043045;28;20040;-62
2024/02/27 07:59:31;;;;;;;26.08;12.55;;;4.20;99.90;;;;;;5042824;28;20071;-62
2024/02/27 08:02:10;;;;;;;40.72;17.90;;;4.20;99.90;;;;;;5047403;28;20480;-64
2024/02/27 08:04:39;;;;;;;40.67;17.05;;;4.10;99.90;;;;;;5025464;28;20029;-64
2024/02/27 08:07:05;;;;;;;43.70;18.75;;;4.10;99.90;;;;;;5037892;28;20021;-63
2024/02/27 08:09:33;;;;;;;41.33;17.27;;;4.10;99.90;;;;;;5040903;28;20487;-64
2024/02/27 08:11:58;;;;;;;40.65;16.05;;;4.10;99.90;;;;;;5042188;28;20017;-64
2024/02/27 08:14:24;;;;;;;46.00;18.50;;;4.10;99.90;;;;;;5036856;28;20042;-65
2024/02/27 08:16:49;;;;;;;37.10;16.33;;;4.10;99.90;;;;;;5043921;28;20056;-64
2024/02/27 08:19:15;;;;;;;38.88;17.45;;;4.10;99.90;;;;;;5042312;28;20025;-63
2024/02/27 08:21:41;;;;;;;42.22;18.23;;;4.10;99.90;;;;;;5040166;28;20370;-63
2024/02/27 08:24:11;;;;;;;39.92;16.30;;;4.10;99.90;;;;;;5043754;28;20074;-63
2024/02/27 08:26:37;;;;;;;41.50;19.90;;;4.10;99.90;;;;;;5042551;28;20496;-64
2024/02/27 08:29:03;;;;;;;42.08;20.50;;;4.00;99.90;;;;;;5046729;28;20021;-64
2024/02/27 08:31:28;;;;;;;38.88;15.75;;;3.90;99.90;;;;;;5040637;28;20052;-64
2024/02/27 08:33:56;;;;;;;41.97;18.30;;;3.80;99.90;;;;;;5042934;28;20035;-64
2024/02/27 08:36:24;;;;;;;37.90;16.10;;;4.00;99.90;;;;;;5037356;28;20559;-64
2024/02/27 08:38:50;;;;;;;38.72;16.17;;;4.00;99.90;;;;;;5041394;28;20037;-64
2024/02/27 08:41:20;;;;;;;42.97;17.27;;;4.00;99.90;;;;;;5042431;28;20027;-63
2024/02/27 08:43:46;;;;;;;41.95;20.10;;;4.10;99.90;;;;;;5041238;28;20171;-63
2024/02/27 08:46:19;;;;;;;42.30;15.82;;;4.10;99.90;;;;;;5042001;28;20048;-63
2024/02/27 08:48:45;;;;;;;36.72;16.25;;;4.10;99.90;;;;;;5040306;28;20412;-63
2024/02/27 08:51:11;;;;;;;39.17;15.43;;;4.00;99.90;;;;;;5041370;28;20036;-63
2024/02/27 08:53:36;;;;;;;39.28;17.98;;;4.00;99.90;;;;;;5041881;28;20064;-63
2024/02/27 08:56:03;;;;;;;39.50;17.83;;;4.00;99.90;;;;;;5042803;28;20390;-64
2024/02/27 08:58:29;;;;;;;37.08;15.50;;;4.00;99.90;;;;;;5045275;28;20551;-64
2024/02/27 09:00:56;;;;;;;38.58;17.55;;;4.00;99.90;;;;;;5043973;28;20033;-64
2024/02/27 09:03:22;;;;;;;36.33;15.38;;;4.20;99.90;;;;;;5047749;28;20126;-64
2024/02/27 09:05:47;;;;;;;37.95;16.73;;;4.10;99.90;;;;;;5035246;28;20056;-64
2024/02/27 09:08:16;;;;;;;40.47;16.70;;;4.10;99.90;;;;;;5043363;28;20029;-64
2024/02/27 09:10:45;;;;;;;40.60;16.73;;;4.10;99.90;;;;;;5043837;28;20052;-64
2024/02/27 09:13:11;;;;;;;36.53;15.77;;;4.00;99.90;;;;;;5042792;28;20063;-64
2024/02/27 09:15:37;;;;;;;35.20;16.00;;;4.00;99.90;;;;;;5045760;28;20021;-63
2024/02/27 09:18:04;;;;;;;39.13;17.10;;;4.10;99.90;;;;;;5047026;28;20055;-64
2024/02/27 09:20:31;;;;;;;40.60;16.90;;;4.00;99.90;;;;;;5053866;28;20033;-63
2024/02/27 09:22:57;;;;;;;38.20;15.98;;;4.10;99.90;;;;;;5043324;28;20017;-63
2024/02/27 09:25:24;;;;;;;40.90;16.77;;;4.10;99.90;;;;;;5037546;28;20155;-62
2024/02/27 09:27:49;;;;;;;36.65;13.38;;;4.20;99.90;;;;;;5043533;28;20123;-63
2024/02/27 09:30:15;;;;;;;36.83;16.45;;;4.20;99.90;;;;;;5036702;28;20116;-63
2024/02/27 09:32:41;;;;;;;37.33;17.15;;;4.30;99.90;;;;;;5043600;28;20037;-63
2024/02/27 09:35:10;;;;;;;40.58;16.35;;;4.20;99.90;;;;;;5044465;28;20058;-63
2024/02/27 09:37:36;;;;;;;36.10;15.35;;;4.30;99.90;;;;;;5042504;28;20029;-62
2024/02/27 09:40:02;;;;;;;38.83;15.90;;;4.40;99.90;;;;;;5040597;28;20399;-62
2024/02/27 09:42:30;;;;;;;34.67;15.70;;;4.50;99.90;;;;;;5043375;28;20021;-62
2024/02/27 09:45:03;;;;;;;30.83;13.23;;;4.70;99.90;;;;;;5040520;28;20380;-62
2024/02/27 09:47:29;;;;;;;31.38;14.77;;;4.70;99.90;;;;;;5046579;28;20032;-62
2024/02/27 09:49:57;;;;;;;33.85;15.38;;;4.70;99.90;;;;;;5044679;28;20024;-62
2024/02/27 09:52:24;;;;;;;32.20;14.63;;;4.70;99.90;;;;;;5040469;28;20033;-62
2024/02/27 09:54:50;;;;;;;32.75;13.90;;;4.70;99.90;;;;;;5036888;28;20041;-62
2024/02/27 09:57:16;;;;;;;37.38;16.38;;;4.60;99.90;;;;;;5032672;28;20045;-62
2024/02/27 09:59:42;;;;;;;34.53;14.95;;;5.90;99.90;;;;;;5041902;28;20033;-63
2024/02/27 10:02:15;;;;;;;28.75;11.73;;;4.70;99.90;;;;;;5047517;28;20032;-63
2024/02/27 10:04:42;;;;;;;31.40;13.95;;;4.80;99.90;;;;;;5041711;28;20067;-63
2024/02/27 10:07:11;;;;;;;30.98;13.55;;;4.80;99.90;;;;;;5044983;28;20022;-63
2024/02/27 10:09:45;;;;;;;28.10;13.03;;;4.80;99.90;;;;;;5043493;28;20051;-63
2024/02/27 10:12:12;;;;;;;31.02;14.00;;;4.90;99.90;;;;;;5056747;28;20345;-63
2024/02/27 10:14:38;;;;;;;33.15;13.50;;;5.10;99.90;;;;;;5049115;28;20049;-63
2024/02/27 10:17:05;;;;;;;29.98;13.45;;;5.20;99.90;;;;;;5049013;28;20024;-63
2024/02/27 10:19:32;;;;;;;30.25;12.55;;;5.40;99.90;;;;;;5045098;28;20021;-63
2024/02/27 10:21:58;;;;;;;27.38;13.25;;;5.50;99.90;;;;;;5049355;28;20095;-62
2024/02/27 10:24:25;;;;;;;44.70;13.23;;;5.60;99.90;;;;;;5051737;28;20444;-64
2024/02/27 10:26:58;;;;;;;29.88;14.05;;;5.50;99.90;;;;;;5046385;28;20021;-62
2024/02/27 10:29:26;;;;;;;30.90;15.43;;;5.60;99.90;;;;;;5042666;28;20524;-62
2024/02/27 10:31:52;;;;;;;31.60;14.82;;;5.50;99.90;;;;;;5041672;28;20086;-63
2024/02/27 10:34:19;;;;;;;31.42;14.68;;;5.30;99.90;;;;;;5043109;28;20033;-62
2024/02/27 10:36:45;;;;;;;33.65;14.38;;;5.00;99.90;;;;;;5051301;28;20080;-62
2024/02/27 10:39:12;;;;;;;30.85;16.23;;;4.70;99.90;;;;;;5047812;28;20025;-63
2024/02/27 10:41:41;;;;;;;35.80;15.57;;;4.70;99.90;;;;;;5043561;28;20048;-62
2024/02/27 10:44:08;;;;;;;31.77;14.13;;;4.60;99.90;;;;;;5051384;28;20036;-62
2024/02/27 10:46:37;;;;;;;30.45;14.57;;;4.70;99.90;;;;;;5042226;28;20085;-63
2024/02/27 10:49:03;;;;;;;32.00;13.68;;;4.70;99.90;;;;;;5050314;28;20064;-63
2024/02/27 10:51:34;;;;;;;25.13;11.48;;;4.90;99.90;;;;;;5042236;28;20103;-63
2024/02/27 10:54:02;;;;;;;27.08;11.60;;;5.30;99.90;;;;;;5045259;28;20063;-63
2024/02/27 10:56:28;;;;;;;27.92;11.98;;;5.40;99.90;;;;;;5043327;28;20428;-63
2024/02/27 10:58:54;;;;;;;28.95;12.70;;;5.50;99.90;;;;;;5047496;28;20025;-63
2024/02/27 11:01:21;;;;;;;26.35;12.13;;;5.70;99.90;;;;;;5045465;28;20075;-63
2024/02/27 11:03:54;;;;;;;25.83;12.07;;;5.90;99.90;;;;;;5048460;28;20120;-63
2024/02/27 11:06:28;;;;;;;29.52;13.05;;;5.80;99.90;;;;;;5046559;28;20028;-62
2024/02/27 11:09:07;;;;;;;27.33;11.13;;;6.00;99.90;;;;;;5048050;28;20455;-62
2024/02/27 11:11:35;;;;;;;27.98;12.55;;;6.00;99.90;;;;;;5052411;28;20068;-62
2024/02/27 11:14:04;;;;;;;28.10;12.18;;;6.10;99.90;;;;;;5048190;28;20049;-62
2024/02/27 11:16:32;;;;;;;23.20;11.57;;;6.10;99.90;;;;;;5050974;28;20028;-62
2024/02/27 11:19:02;;;;;;;24.10;11.35;;;6.20;99.90;;;;;;5043744;28;20485;-62
2024/02/27 11:21:29;;;;;;;26.08;11.45;;;6.30;99.90;;;;;;5047792;28;20025;-63
2024/02/27 11:23:55;;;;;;;23.77;12.68;;;6.40;99.90;;;;;;5042367;28;20033;-64
2024/02/27 11:26:21;;;;;;;23.80;11.75;;;6.30;99.90;;;;;;5047181;28;20498;-63
2024/02/27 11:28:49;;;;;;;26.33;12.27;;;6.40;99.90;;;;;;5044417;28;20021;-63
2024/02/27 11:31:16;;;;;;;24.92;12.05;;;6.40;99.90;;;;;;5048392;28;20472;-63
2024/02/27 11:33:51;;;;;;;28.88;13.85;;;6.40;99.90;;;;;;5045685;28;20025;-63
2024/02/27 11:36:17;;;;;;;26.17;11.70;;;6.40;99.90;;;;;;5039632;28;20105;-64
2024/02/27 11:38:43;;;;;;;23.95;11.00;;;6.40;99.90;;;;;;5046901;28;20610;-61
2024/02/27 11:41:22;;;;;;;22.77;10.95;;;6.50;99.90;;;;;;5052050;28;20032;-64
2024/02/27 11:43:49;;;;;;;22.63;10.57;;;7.00;99.90;;;;;;5048958;28;20020;-63
2024/02/27 11:46:27;;;;;;;22.67;11.10;;;7.30;99.90;;;;;;5045626;28;20021;-65
2024/02/27 11:48:53;;;;;;;24.10;10.90;;;7.20;99.90;;;;;;5046624;28;20658;-62
2024/02/27 11:51:29;;;;;;;21.13;9.77;;;7.10;99.90;;;;;;5037210;28;20086;-63
2024/02/27 11:53:55;;;;;;;22.00;11.32;;;7.20;99.90;;;;;;5047353;28;20409;-64
2024/02/27 11:56:22;;;;;;;20.92;10.02;;;7.80;99.90;;;;;;5044587;28;20029;-64
2024/02/27 11:58:48;;;;;;;23.08;11.32;;;8.20;99.90;;;;;;5041055;28;20163;-64
2024/02/27 12:01:15;;;;;;;21.65;10.68;;;8.40;99.90;;;;;;5036557;28;20111;-64
2024/02/27 12:03:44;;;;;;;21.13;10.30;;;8.40;99.90;;;;;;5040684;28;20033;-64
2024/02/27 12:06:11;;;;;;;26.10;11.73;;;8.20;99.90;;;;;;5039491;28;20079;-63
2024/02/27 12:08:49;;;;;;;26.40;12.90;;;7.70;99.90;;;;;;5050766;28;20098;-64
2024/02/27 12:11:20;;;;;;;25.02;11.77;;;7.30;99.90;;;;;;5042731;28;20345;-64
2024/02/27 12:13:49;;;;;;;21.40;11.10;;;7.60;99.90;;;;;;5046311;28;20128;-64
2024/02/27 12:16:26;;;;;;;22.95;10.38;;;8.60;99.90;;;;;;5049799;28;20081;-64
2024/02/27 12:18:56;;;;;;;20.40;10.27;;;9.90;99.90;;;;;;5041730;28;20029;-64
2024/02/27 12:21:33;;;;;;;22.58;10.77;;;10.70;99.90;;;;;;5044536;28;20032;-64
2024/02/27 12:24:18;;;;;;;21.00;9.80;;;11.00;99.90;;;;;;5037372;28;20469;-65
2024/02/27 12:26:45;;;;;;;20.05;9.80;;;10.50;99.90;;;;;;5043211;28;20025;-64
2024/02/27 12:29:10;;;;;;;19.67;10.18;;;10.20;99.90;;;;;;5040175;28;20029;-65
2024/02/27 12:31:37;;;;;;;20.55;10.77;;;9.70;99.90;;;;;;5043825;28;20462;-64
2024/02/27 12:34:06;;;;;;;20.40;10.52;;;9.40;99.90;;;;;;5042434;28;20526;-63
2024/02/27 12:36:32;;;;;;;20.65;9.63;;;9.10;99.90;;;;;;5039365;28;20393;-64